Time;durP1;ratioP1;P1;durP2;ratioP2;P2;SDS_P1;SDS_P2;PMS_P1;PMS_P2;Temp;Humidity;BMP_temperature;BMP_pressure;BME280_temperature;BME280_humidity;BME280_pressure;Samples;Min_cycle;Max_cycle;Signal;HPM_P1;HPM_P2
2021/04/25 00:01:36;;;;;;;11.48;4.55;;;;;;;22.89;44.49;98763.41;5047656;28;20225;-59
2021/04/25 00:04:02;;;;;;;9.35;5.05;;;;;;;22.88;44.41;98761.75;5054688;28;20759;-64
2021/04/25 00:06:29;;;;;;;9.95;4.95;;;;;;;22.87;44.48;98760.06;5058092;28;20339;-61
2021/04/25 00:08:56;;;;;;;9.30;4.65;;;;;;;22.87;44.03;98759.25;5051446;28;20198;-61
2021/04/25 00:11:22;;;;;;;11.25;5.25;;;;;;;22.86;43.52;98762.88;5054064;28;20252;-61
2021/04/25 00:13:48;;;;;;;7.90;4.40;;;;;;;22.86;44.33;98761.03;5050698;28;20325;-63
2021/04/25 00:16:15;;;;;;;11.70;4.65;;;;;;;22.85;44.35;98759.38;5046554;28;20203;-62
2021/04/25 00:18:42;;;;;;;9.45;4.78;;;;;;;22.84;43.80;98755.03;5052008;28;20340;-63
2021/04/25 00:21:08;;;;;;;8.68;4.70;;;;;;;22.84;44.23;98755.03;5051443;28;20230;-63
2021/04/25 00:23:35;;;;;;;9.05;4.38;;;;;;;22.84;44.06;98757.72;5052370;28;20714;-63
2021/04/25 00:26:01;;;;;;;7.47;4.70;;;;;;;22.83;43.63;98756.06;5060736;28;20221;-63
2021/04/25 00:28:27;;;;;;;14.02;4.65;;;;;;;22.84;43.71;98756.88;5057778;28;20207;-61
2021/04/25 00:30:53;;;;;;;7.20;4.28;;;;;;;22.82;43.96;98757.03;5045353;28;20204;-57
2021/04/25 00:33:19;;;;;;;8.43;4.57;;;;;;;22.81;44.54;98752.69;5050299;28;20230;-60
2021/04/25 00:35:45;;;;;;;8.55;4.07;;;;;;;22.82;44.36;98762.38;5047344;28;20207;-58
2021/04/25 00:38:11;;;;;;;7.03;4.35;;;;;;;22.81;44.15;98755.34;5047366;28;20207;-60
2021/04/25 00:40:38;;;;;;;9.15;4.68;;;;;;;22.82;44.14;98748.22;5047452;28;20923;-64
2021/04/25 00:43:05;;;;;;;7.32;3.80;;;;;;;22.80;44.17;98745.69;5046383;28;20218;-62
2021/04/25 00:45:31;;;;;;;10.88;4.40;;;;;;;22.80;44.31;98740.38;5051078;28;20207;-63
2021/04/25 00:47:57;;;;;;;9.68;3.97;;;;;;;22.79;43.53;98749.34;5053149;28;20203;-62
2021/04/25 00:50:25;;;;;;;8.45;4.22;;;;;;;22.80;43.63;98744.84;5051671;28;20305;-64
2021/04/25 00:52:54;;;;;;;8.20;4.43;;;;;;;22.80;43.88;98743.03;5048076;28;20599;-63
2021/04/25 00:55:23;;;;;;;9.50;4.90;;;;;;;22.78;43.46;98737.00;5054132;28;20695;-63
2021/04/25 00:57:51;;;;;;;7.88;4.38;;;;;;;22.79;43.64;98732.53;5053617;28;20296;-63
2021/04/25 01:00:18;;;;;;;9.27;4.60;;;;;;;22.79;43.38;98732.53;5054417;28;20286;-63
2021/04/25 01:02:45;;;;;;;10.57;4.50;;;;;;;22.76;43.34;98730.97;5052910;28;20397;-59
2021/04/25 01:05:14;;;;;;;9.65;4.80;;;;;;;22.76;44.21;98733.66;5059343;28;20298;-62
2021/04/25 01:07:40;;;;;;;6.45;4.07;;;;;;;22.75;44.51;98736.47;5059302;28;20555;-62
2021/04/25 01:10:08;;;;;;;7.38;4.15;;;;;;;22.76;43.61;98738.16;5056957;28;20750;-62
2021/04/25 01:12:34;;;;;;;6.75;3.95;;;;;;;22.75;43.58;98740.00;5052452;28;20415;-62
2021/04/25 01:15:02;;;;;;;7.43;3.80;;;;;;;22.75;44.15;98733.81;5055638;28;20256;-63
2021/04/25 01:17:28;;;;;;;6.63;3.78;;;;;;;22.74;43.48;98738.31;5059299;28;20199;-61
2021/04/25 01:19:57;;;;;;;7.45;4.25;;;;;;;22.73;44.22;98731.28;5060830;28;20195;-60
2021/04/25 01:22:24;;;;;;;7.03;3.97;;;;;;;22.73;44.48;98737.47;5049161;28;20319;-62
2021/04/25 01:24:51;;;;;;;6.88;3.65;;;;;;;22.73;43.84;98736.63;5048319;28;20303;-60
2021/04/25 01:27:17;;;;;;;8.52;3.70;;;;;;;22.73;43.55;98740.16;5053850;28;20351;-63
2021/04/25 01:29:43;;;;;;;6.50;3.60;;;;;;;22.73;43.58;98741.94;5054190;28;20236;-62
2021/04/25 01:32:10;;;;;;;8.23;4.03;;;;;;;22.72;44.32;98740.28;5052404;28;20298;-62
2021/04/25 01:34:36;;;;;;;5.53;3.53;;;;;;;22.71;43.73;98744.78;5053169;28;20206;-63
2021/04/25 01:37:02;;;;;;;9.30;4.22;;;;;;;22.71;43.67;98743.94;5050389;28;20852;-61
2021/04/25 01:39:30;;;;;;;7.85;3.60;;;;;;;22.69;43.77;98752.09;5053839;28;20237;-62
2021/04/25 01:41:57;;;;;;;7.00;3.55;;;;;;;22.70;43.43;98758.28;5057771;28;20221;-62
2021/04/25 01:44:23;;;;;;;6.90;3.78;;;;;;;22.69;43.30;98761.91;5057590;28;20214;-61
2021/04/25 01:46:49;;;;;;;6.10;3.55;;;;;;;22.70;43.34;98763.59;5048219;28;20225;-62
2021/04/25 01:49:15;;;;;;;6.18;3.28;;;;;;;22.68;44.01;98766.41;5059218;28;20342;-63
2021/04/25 01:51:41;;;;;;;6.90;3.70;;;;;;;22.67;43.57;98759.41;5049080;28;20203;-63
2021/04/25 01:54:08;;;;;;;6.95;3.63;;;;;;;22.68;43.50;98770.91;5063847;28;20231;-62
2021/04/25 01:56:36;;;;;;;7.80;3.38;;;;;;;22.68;44.01;98770.91;5059516;28;20199;-62
2021/04/25 01:59:03;;;;;;;6.10;3.60;;;;;;;22.66;44.12;98770.22;5050821;28;20203;-63
2021/04/25 02:01:30;;;;;;;7.82;3.55;;;;;;;22.66;44.00;98759.56;5050394;28;20264;-63
2021/04/25 02:03:56;;;;;;;7.07;3.50;;;;;;;22.64;44.27;98758.88;5046983;28;20599;-59
2021/04/25 02:06:22;;;;;;;7.50;3.60;;;;;;;22.67;44.28;98758.59;5052880;28;20210;-60
2021/04/25 02:08:49;;;;;;;7.80;3.90;;;;;;;22.64;43.71;98753.56;5062583;28;20689;-63
2021/04/25 02:11:15;;;;;;;4.95;3.60;;;;;;;22.64;44.01;98761.53;5053040;28;20203;-62
2021/04/25 02:13:42;;;;;;;6.35;3.03;;;;;;;22.64;43.28;98764.22;5050784;28;20223;-63
2021/04/25 02:16:09;;;;;;;5.15;3.60;;;;;;;22.63;43.67;98754.53;5056750;28;20198;-62
2021/04/25 02:18:35;;;;;;;8.30;3.85;;;;;;;22.64;43.55;98758.88;5057799;28;20207;-62
2021/04/25 02:21:01;;;;;;;7.97;3.15;;;;;;;22.62;44.17;98760.88;5051023;28;20254;-62
2021/04/25 02:23:27;;;;;;;8.55;3.17;;;;;;;22.62;44.28;98747.53;5058161;28;20258;-61
2021/04/25 02:25:54;;;;;;;8.25;3.22;;;;;;;22.62;43.70;98751.03;5061952;28;20209;-62
2021/04/25 02:28:20;;;;;;;5.60;3.47;;;;;;;22.61;44.06;98746.69;5052928;28;20223;-63
2021/04/25 02:30:47;;;;;;;6.00;3.40;;;;;;;22.61;43.95;98745.88;5055875;28;20681;-63
2021/04/25 02:33:13;;;;;;;4.80;3.15;;;;;;;22.60;43.57;98741.50;5056270;28;20227;-57
2021/04/25 02:35:39;;;;;;;9.60;3.47;;;;;;;22.59;43.64;98743.34;5053326;28;20226;-60
2021/04/25 02:38:06;;;;;;;6.07;3.53;;;;;;;22.60;43.81;98749.50;5049496;28;20216;-58
2021/04/25 02:40:34;;;;;;;7.32;3.20;;;;;;;22.59;44.00;98743.34;5048553;28;20249;-63
2021/04/25 02:43:02;;;;;;;7.80;3.47;;;;;;;22.59;44.37;98746.00;5063181;28;20355;-61
2021/04/25 02:45:29;;;;;;;5.85;3.20;;;;;;;22.59;43.57;98745.19;5054134;28;20540;-63
2021/04/25 02:47:58;;;;;;;6.22;3.10;;;;;;;22.56;44.30;98740.16;5063472;28;20305;-62
2021/04/25 02:50:26;;;;;;;9.32;3.10;;;;;;;22.58;43.83;98743.50;5057731;28;20613;-61
2021/04/25 02:52:53;;;;;;;6.18;3.13;;;;;;;22.58;43.43;98743.50;5053759;28;20239;-63
2021/04/25 02:55:19;;;;;;;7.68;3.25;;;;;;;22.56;44.39;98742.81;5055082;28;20692;-63
2021/04/25 02:57:45;;;;;;;6.05;3.47;;;;;;;22.58;44.24;98738.16;5056680;28;20214;-60
2021/04/25 03:00:16;;;;;;;5.85;2.92;;;;;;;22.56;43.97;98732.16;5062850;28;20724;-61
2021/04/25 03:02:42;;;;;;;5.25;3.17;;;;;;;22.54;44.28;98737.66;5059880;28;20686;-62
2021/04/25 03:05:11;;;;;;;5.68;3.15;;;;;;;22.52;44.34;98726.31;5059369;28;20561;-63
2021/04/25 03:07:37;;;;;;;6.68;3.00;;;;;;;22.54;43.90;98727.00;5052793;28;20289;-62
2021/04/25 03:10:03;;;;;;;6.50;3.50;;;;;;;22.51;43.70;98722.78;5062372;28;20300;-63
2021/04/25 03:12:30;;;;;;;6.50;3.53;;;;;;;22.53;44.22;98726.16;5054000;28;20706;-63
2021/04/25 03:14:56;;;;;;;5.95;2.90;;;;;;;22.53;44.42;98726.16;5056150;28;20245;-61
2021/04/25 03:17:22;;;;;;;6.43;2.95;;;;;;;22.53;43.61;98723.50;5061705;28;20211;-59
2021/04/25 03:19:48;;;;;;;10.77;3.08;;;;;;;22.53;43.99;98728.81;5056972;28;20259;-62
2021/04/25 03:22:15;;;;;;;5.53;2.88;;;;;;;22.52;43.92;98724.47;5053992;28;20203;-62
2021/04/25 03:24:41;;;;;;;5.82;3.10;;;;;;;22.50;44.17;98726.47;5061193;28;20212;-62
2021/04/25 03:27:07;;;;;;;6.57;2.97;;;;;;;22.52;43.98;98724.47;5050627;28;20207;-57
2021/04/25 03:29:33;;;;;;;5.20;3.15;;;;;;;22.52;44.77;98729.81;5055520;28;20200;-63
2021/04/25 03:31:59;;;;;;;5.78;2.78;;;;;;;22.49;44.28;98723.94;5057322;28;20298;-61
2021/04/25 03:34:25;;;;;;;5.18;2.97;;;;;;;22.51;43.84;98728.13;5048890;28;20234;-62
2021/04/25 03:36:51;;;;;;;4.63;2.83;;;;;;;22.51;43.93;98724.63;5049986;28;20275;-63
2021/04/25 03:39:19;;;;;;;5.88;2.50;;;;;;;22.51;44.28;98727.28;5054717;28;20253;-61
2021/04/25 03:41:45;;;;;;;7.55;2.80;;;;;;;22.49;44.12;98729.28;5056070;28;20191;-62
2021/04/25 03:44:13;;;;;;;5.57;3.15;;;;;;;22.51;44.21;98727.28;5056199;28;20242;-62
2021/04/25 03:46:39;;;;;;;6.70;2.58;;;;;;;22.48;44.32;98728.44;5053447;28;20206;-61
2021/04/25 03:49:05;;;;;;;4.05;2.67;;;;;;;22.48;44.21;98731.13;5059903;28;20263;-61
2021/04/25 03:51:31;;;;;;;6.15;3.10;;;;;;;22.48;44.76;98730.25;5052355;28;20207;-62
2021/04/25 03:53:58;;;;;;;6.40;3.03;;;;;;;22.48;44.17;98739.09;5056409;28;20234;-62
2021/04/25 03:56:25;;;;;;;4.60;2.75;;;;;;;22.47;44.62;98742.75;5053526;28;20211;-62
2021/04/25 03:58:51;;;;;;;5.40;2.50;;;;;;;22.47;43.86;98737.41;5060734;28;20264;-62
2021/04/25 04:01:17;;;;;;;6.22;2.53;;;;;;;22.48;43.74;98740.91;5061814;28;20294;-63
2021/04/25 04:03:43;;;;;;;5.35;2.47;;;;;;;22.46;44.60;98748.22;5052235;28;20237;-62
2021/04/25 04:06:09;;;;;;;4.88;2.80;;;;;;;22.47;44.18;98748.06;5059751;28;20209;-60
2021/04/25 04:08:35;;;;;;;5.47;2.30;;;;;;;22.46;44.56;98751.72;5054627;28;20579;-62
2021/04/25 04:11:01;;;;;;;4.25;2.10;;;;;;;22.46;44.16;98735.72;5052549;28;20236;-62
2021/04/25 04:13:28;;;;;;;4.90;2.20;;;;;;;22.44;44.67;98743.06;5053788;28;20318;-62
2021/04/25 04:15:54;;;;;;;4.30;2.22;;;;;;;22.45;44.65;98744.75;5050722;28;20282;-61
2021/04/25 04:18:21;;;;;;;5.60;2.20;;;;;;;22.45;44.32;98742.06;5062512;28;20228;-63
2021/04/25 04:20:47;;;;;;;4.38;2.50;;;;;;;22.45;44.68;98743.88;5051732;28;20210;-62
2021/04/25 04:23:13;;;;;;;3.72;2.70;;;;;;;22.43;44.32;98749.38;5062364;28;20243;-62
2021/04/25 04:25:39;;;;;;;9.23;2.38;;;;;;;22.45;44.19;98750.06;5059177;28;20311;-63
2021/04/25 04:28:05;;;;;;;7.07;2.50;;;;;;;22.43;44.19;98753.84;5062329;28;20205;-63
2021/04/25 04:30:32;;;;;;;7.20;2.33;;;;;;;22.44;44.24;98758.22;5056611;28;20245;-62
2021/04/25 04:33:00;;;;;;;5.80;2.25;;;;;;;22.45;44.70;98757.19;5055854;28;20251;-63
2021/04/25 04:35:27;;;;;;;7.60;2.67;;;;;;;22.44;44.63;98758.22;5059068;28;20203;-62
2021/04/25 04:37:54;;;;;;;5.40;2.70;;;;;;;22.43;44.51;98765.38;5057954;28;20666;-63
2021/04/25 04:40:20;;;;;;;6.30;2.45;;;;;;;22.44;45.01;98775.03;5054361;28;20313;-63
2021/04/25 04:42:46;;;;;;;3.80;2.28;;;;;;;22.42;45.10;98771.69;5054675;28;20337;-58
2021/04/25 04:45:14;;;;;;;4.35;2.55;;;;;;;22.43;44.29;98777.84;5050795;28;20213;-62
2021/04/25 04:47:42;;;;;;;5.85;2.30;;;;;;;22.43;44.88;98786.69;5056853;28;20656;-63
2021/04/25 04:50:09;;;;;;;7.70;2.40;;;;;;;22.42;44.32;98790.31;5056113;28;20203;-57
2021/04/25 04:52:35;;;;;;;4.07;2.17;;;;;;;22.42;44.71;98786.84;5055411;28;20734;-60
2021/04/25 04:55:02;;;;;;;5.55;2.40;;;;;;;22.43;44.56;98788.50;5046823;28;20212;-63
2021/04/25 04:57:28;;;;;;;5.90;2.63;;;;;;;22.42;45.08;98782.34;5055437;28;20290;-61
2021/04/25 04:59:54;;;;;;;6.20;2.17;;;;;;;22.43;44.49;98793.81;5060244;28;20355;-63
2021/04/25 05:02:20;;;;;;;7.13;2.67;;;;;;;22.43;45.10;98792.00;5057196;28;20287;-62
2021/04/25 05:04:47;;;;;;;5.28;2.40;;;;;;;22.43;43.89;98789.34;5053685;28;20195;-64
2021/04/25 05:07:13;;;;;;;6.13;2.45;;;;;;;22.42;44.51;98776.19;5058678;28;20298;-63
2021/04/25 05:09:39;;;;;;;4.57;2.17;;;;;;;22.43;45.10;98789.34;5048074;28;20290;-57
2021/04/25 05:12:06;;;;;;;4.13;2.25;;;;;;;22.43;44.48;98793.81;5052422;28;20241;-63
2021/04/25 05:14:32;;;;;;;6.85;2.78;;;;;;;22.42;44.85;98792.16;5062611;28;20710;-60
2021/04/25 05:16:59;;;;;;;4.32;2.20;;;;;;;22.42;44.99;98797.50;5052634;28;20587;-62
2021/04/25 05:19:25;;;;;;;4.57;2.28;;;;;;;22.42;45.18;98787.66;5051244;28;20225;-60
2021/04/25 05:21:52;;;;;;;5.28;2.33;;;;;;;22.42;44.79;98792.16;5057858;28;20367;-64
2021/04/25 05:24:18;;;;;;;5.43;2.30;;;;;;;22.42;45.14;98793.00;5056573;28;20234;-63
2021/04/25 05:26:44;;;;;;;5.95;2.20;;;;;;;22.41;44.50;98799.28;5057881;28;20224;-58
2021/04/25 05:29:10;;;;;;;3.97;2.03;;;;;;;22.41;44.65;98801.94;5065379;28;20210;-61
2021/04/25 05:31:36;;;;;;;2.97;2.13;;;;;;;22.43;44.53;98805.34;5051449;28;20576;-59
2021/04/25 05:34:03;;;;;;;5.40;2.50;;;;;;;22.41;44.69;98807.28;5058555;28;20226;-60
2021/04/25 05:36:29;;;;;;;4.88;2.15;;;;;;;22.43;45.23;98808.00;5050510;28;20203;-63
2021/04/25 05:38:56;;;;;;;9.23;2.25;;;;;;;22.44;44.39;98806.16;5058969;28;20290;-62
2021/04/25 05:41:22;;;;;;;4.63;2.38;;;;;;;22.47;45.06;98808.53;5051805;28;20678;-63
2021/04/25 05:43:48;;;;;;;4.10;2.10;;;;;;;22.48;45.04;98805.72;5053800;28;20306;-64
2021/04/25 05:46:15;;;;;;;4.85;2.40;;;;;;;22.53;44.92;98816.75;5046415;28;20299;-63
2021/04/25 05:48:44;;;;;;;3.95;1.90;;;;;;;22.58;44.72;98812.78;5055395;28;20207;-62
2021/04/25 05:51:10;;;;;;;2.58;1.80;;;;;;;22.61;44.03;98820.47;5052697;28;20896;-63
2021/04/25 05:53:36;;;;;;;7.15;2.30;;;;;;;22.56;44.99;98817.44;5055296;28;20614;-58
2021/04/25 05:56:03;;;;;;;4.18;2.08;;;;;;;22.59;43.94;98820.63;5052994;28;20208;-62
2021/04/25 05:58:29;;;;;;;5.43;2.35;;;;;;;22.64;43.98;98823.66;5044944;28;20291;-62
2021/04/25 06:00:56;;;;;;;4.68;1.90;;;;;;;22.65;44.66;98835.16;5057409;28;20295;-62
2021/04/25 06:03:22;;;;;;;4.78;2.25;;;;;;;22.67;43.93;98835.88;5059424;28;20469;-60
2021/04/25 06:05:48;;;;;;;5.03;1.88;;;;;;;22.68;44.55;98829.53;5053769;28;20273;-54
2021/04/25 06:08:14;;;;;;;3.95;2.17;;;;;;;22.69;44.48;98840.03;5052250;28;20291;-53
2021/04/25 06:10:40;;;;;;;5.05;2.03;;;;;;;22.73;43.69;98841.41;5048238;28;20209;-63
2021/04/25 06:13:07;;;;;;;2.72;1.95;;;;;;;22.81;43.64;98839.81;5058980;28;20269;-58
2021/04/25 06:15:34;;;;;;;3.25;1.90;;;;;;;22.83;43.18;98838.69;5058663;28;20302;-52
2021/04/25 06:18:02;;;;;;;7.22;2.70;;;;;;;22.83;43.35;98838.69;5061316;28;20305;-58
2021/04/25 06:20:29;;;;;;;7.35;2.30;;;;;;;22.83;43.00;98838.69;5063452;28;20199;-58
2021/04/25 06:22:55;;;;;;;6.28;2.03;;;;;;;22.86;43.99;98840.19;5064248;28;20217;-53
2021/04/25 06:25:21;;;;;;;4.03;1.80;;;;;;;22.89;43.48;98837.22;5063741;28;20301;-59
2021/04/25 06:27:48;;;;;;;5.90;2.00;;;;;;;22.91;43.68;98835.22;5066153;28;20264;-58
2021/04/25 06:30:17;;;;;;;5.13;2.25;;;;;;;22.94;43.44;98850.09;5058420;28;20276;-58
2021/04/25 06:32:44;;;;;;;5.43;2.03;;;;;;;22.99;43.55;98845.97;5059855;28;20256;-63
2021/04/25 06:35:12;;;;;;;5.40;1.73;;;;;;;23.01;42.98;98840.50;5060013;28;20209;-68
2021/04/25 06:40:26;;;;;;;4.97;1.60;;;;;;;23.03;43.74;98843.81;5101557;27;20615;-58
2021/04/25 06:42:52;;;;;;;6.32;2.00;;;;;;;23.02;43.57;98839.50;5092597;28;20601;-57
2021/04/25 06:45:22;;;;;;;6.35;1.63;;;;;;;23.04;43.67;98848.19;5080095;28;20216;-58
2021/04/25 06:47:48;;;;;;;8.80;1.67;;;;;;;23.04;44.40;98840.19;5081639;28;20286;-58
2021/04/25 06:50:16;;;;;;;4.40;1.83;;;;;;;23.04;44.26;98838.34;5080452;28;20709;-62
